This is the latest recevied weather packets stored in our database for station/object IT9DBI-3. If no packets are shown the sender has not sent any weather packets the latest 10 day(s).
| Time | Temp. | Humidity | Pressure | Rain* | Wind** | Luminosity | Snow |
|---|---|---|---|---|---|---|---|
| 1778014095 | 18.33° C | 83% | 1014.5 hPa | - | - | - | - |
| 1778012894 | 18.33° C | 84% | 1014.6 hPa | - | - | - | - |
| 1778011692 | 17.78° C | 90% | 1014.8 hPa | - | - | - | - |
| 1778010490 | 17.22° C | 92% | 1015.1 hPa | - | - | - | - |
| 1778009288 | 17.22° C | 95% | 1015.4 hPa | - | - | - | - |
| 1778008083 | 17.78° C | 95% | 1015.4 hPa | - | - | - | - |
| 1778006881 | 17.22° C | 96% | 1015.3 hPa | - | - | - | - |
| 1778005680 | 18.33° C | 89% | 1015.4 hPa | - | - | - | - |
| 1778004477 | 18.89° C | 80% | 1015.4 hPa | - | - | - | - |
| 1778003275 | 19.44° C | 77% | 1015.3 hPa | - | - | - | - |
| 1778002074 | 20° C | 72% | 1015.2 hPa | - | - | - | - |
| 1778001236 | 20.56° C | 68% | 1015.2 hPa | - | - | - | - |
| 1778000035 | 22.22° C | 63% | 1015.2 hPa | - | - | - | - |
| 1777998834 | 22.22° C | 62% | 1015.1 hPa | - | - | - | - |
| 1777997632 | 22.78° C | 55% | 1015.2 hPa | - | - | - | - |
| 1777996431 | 20.56° C | 68% | 1015.3 hPa | - | - | - | - |
| 1777995230 | 21.67° C | 61% | 1015.2 hPa | - | - | - | - |
| 1777994028 | 23.89° C | 55% | 1014.9 hPa | - | - | - | - |
| 1777992827 | 23.33° C | 54% | 1014.9 hPa | - | - | - | - |
| 1777991626 | 23.89° C | 52% | 1015 hPa | - | - | - | - |
| 1777990425 | 24.44° C | 48% | 1015.1 hPa | - | - | - | - |
| 1777989220 | 24.44° C | 48% | 1015.3 hPa | - | - | - | - |
| 1777988018 | 23.33° C | 50% | 1015.2 hPa | - | - | - | - |
| 1777986816 | 24.44° C | 47% | 1015.3 hPa | - | - | - | - |
| 1777985614 | 24.44° C | 45% | 1015.4 hPa | - | - | - | - |
* Rain since midnight (hover to see other rain measurements)
** Current wind speed in m/s (hover to see current wind gust speed)